createdAt,value
2019-02-03T00:00:56.366Z,24.23
2019-02-03T00:03:24.812Z,26.10
2019-02-03T00:05:53.238Z,21.68
2019-02-03T00:08:21.657Z,24.60
2019-02-03T00:10:54.126Z,22.75
2019-02-03T00:13:22.547Z,23.98
2019-02-03T00:15:51.231Z,23.52
2019-02-03T00:18:19.745Z,24.20
2019-02-03T00:20:48.170Z,24.25
2019-02-03T00:23:16.602Z,24.15
2019-02-03T00:25:48.733Z,25.27
2019-02-03T00:28:17.731Z,24.05
2019-02-03T00:30:46.176Z,25.25
2019-02-03T00:33:14.610Z,23.83
2019-02-03T00:35:43.035Z,25.15
2019-02-03T00:38:21.313Z,23.02
2019-02-03T00:40:41.805Z,21.15
2019-02-03T00:43:10.648Z,23.18
2019-02-03T00:45:39.096Z,21.33
2019-02-03T00:48:07.492Z,22.93
2019-02-03T00:50:36.013Z,19.55
2019-02-03T00:53:05.473Z,15.88
2019-02-03T00:55:38.207Z,20.10
2019-02-03T00:58:07.108Z,24.18
2019-02-03T01:00:35.562Z,25.70
2019-02-03T01:03:04.892Z,23.30
2019-02-03T01:05:33.440Z,22.80
2019-02-03T01:08:02.233Z,27.30
2019-02-03T01:10:31.081Z,18.50
2019-02-03T01:12:59.566Z,25.82
2019-02-03T01:15:28.271Z,26.60
2019-02-03T01:17:56.682Z,26.40
2019-02-03T01:20:25.874Z,27.95
2019-02-03T01:22:54.327Z,22.02
2019-02-03T01:25:22.840Z,27.05
2019-02-03T01:27:51.278Z,19.37
2019-02-03T01:30:23.727Z,26.15
2019-02-03T01:32:52.173Z,15.63
2019-02-03T01:35:20.732Z,24.23
2019-02-03T01:37:49.171Z,22.27
2019-02-03T01:40:19.339Z,19.32
2019-02-03T01:42:48.371Z,22.80
2019-02-03T01:45:21.815Z,20.92
2019-02-03T01:47:50.233Z,21.50
2019-02-03T01:50:18.688Z,21.07
2019-02-03T01:52:47.161Z,23.73
2019-02-03T01:55:18.926Z,19.95
2019-02-03T01:57:47.364Z,18.62
2019-02-03T02:00:21.282Z,16.30
2019-02-03T02:02:49.731Z,25.12
2019-02-03T02:05:18.552Z,24.27
2019-02-03T02:07:51.517Z,23.60
2019-02-03T02:10:23.039Z,13.58
2019-02-03T02:12:51.480Z,23.25
2019-02-03T02:15:21.534Z,22.98
2019-02-03T02:17:51.675Z,21.35
2019-02-03T02:20:25.211Z,22.05
2019-02-03T02:22:53.919Z,17.30
2019-02-03T02:25:22.423Z,16.55
2019-02-03T02:27:51.011Z,24.65
2019-02-03T02:30:25.206Z,19.05
2019-02-03T02:32:54.086Z,24.05
2019-02-03T02:35:22.778Z,24.80
2019-02-03T02:38:05.142Z,24.50
2019-02-03T02:40:24.439Z,16.75
2019-02-03T02:42:53.217Z,17.92
2019-02-03T02:45:22.092Z,25.55
2019-02-03T02:47:50.513Z,17.40
2019-02-03T02:50:21.692Z,23.00
2019-02-03T02:52:50.250Z,25.17
2019-02-03T02:55:18.687Z,23.57
2019-02-03T02:57:47.576Z,23.65
2019-02-03T03:00:23.951Z,24.55
2019-02-03T03:02:52.358Z,19.62
2019-02-03T03:05:20.955Z,21.97
2019-02-03T03:07:50.482Z,20.57
2019-02-03T03:10:20.706Z,24.27
2019-02-03T03:12:49.470Z,21.97
2019-02-03T03:15:22.264Z,19.60
2019-02-03T03:17:51.221Z,18.73
2019-02-03T03:20:21.851Z,15.23
2019-02-03T03:22:51.487Z,17.48
2019-02-03T03:25:22.035Z,15.63
2019-02-03T03:27:50.715Z,22.48
2019-02-03T03:30:25.008Z,19.25
2019-02-03T03:32:53.535Z,18.07
2019-02-03T03:35:22.319Z,19.92
2019-02-03T03:37:50.751Z,9.50
2019-02-03T03:40:27.691Z,18.17
2019-02-03T03:42:56.431Z,20.10
2019-02-03T03:45:25.378Z,17.02
2019-02-03T03:47:53.828Z,17.85
2019-02-03T03:50:22.524Z,20.68
2019-02-03T03:52:50.948Z,16.35
2019-02-03T03:55:19.759Z,14.18
2019-02-03T03:57:48.272Z,19.23
2019-02-03T04:00:24.915Z,20.92
2019-02-03T04:02:53.709Z,20.80
2019-02-03T04:05:22.317Z,22.20
2019-02-03T04:07:50.926Z,20.27
2019-02-03T04:10:21.490Z,19.48
2019-02-03T04:12:49.902Z,12.58
2019-02-03T04:15:20.192Z,11.22
2019-02-03T04:17:49.004Z,17.45
2019-02-03T04:20:20.689Z,20.27
2019-02-03T04:22:49.159Z,12.07
2019-02-03T04:25:17.568Z,18.10
2019-02-03T04:27:46.004Z,21.35
2019-02-03T04:30:17.235Z,16.27
2019-02-03T04:32:45.702Z,22.55
2019-02-03T04:35:14.211Z,13.68
2019-02-03T04:37:42.636Z,20.45
2019-02-03T04:40:19.430Z,21.20
2019-02-03T04:42:48.474Z,19.05
2019-02-03T04:45:18.468Z,15.90
2019-02-03T04:47:46.881Z,14.80
2019-02-03T04:50:17.364Z,19.62
2019-02-03T04:52:45.900Z,11.38
2019-02-03T04:55:16.726Z,15.70
2019-02-03T04:57:45.144Z,13.48
2019-02-03T05:00:19.559Z,16.82
2019-02-03T05:02:47.982Z,15.15
2019-02-03T05:05:16.661Z,14.70
2019-02-03T05:07:45.116Z,14.47
2019-02-03T05:10:15.348Z,15.40
2019-02-03T05:12:43.778Z,10.75
2019-02-03T05:15:19.796Z,14.00
2019-02-03T05:17:48.431Z,11.90
2019-02-03T05:20:19.028Z,9.83
2019-02-03T05:22:48.422Z,13.78
2019-02-03T05:25:17.345Z,12.10
2019-02-03T05:27:45.767Z,13.68
2019-02-03T05:30:26.672Z,7.95
2019-02-03T05:32:55.217Z,11.35
2019-02-03T05:35:23.759Z,6.58
2019-02-03T05:37:52.270Z,8.58
2019-02-03T05:40:20.682Z,10.78
2019-02-03T05:42:49.136Z,9.88
2019-02-03T05:45:20.001Z,9.73
2019-02-03T05:47:50.194Z,12.28
2019-02-03T05:50:20.773Z,12.33
2019-02-03T05:52:49.217Z,11.60
2019-02-03T05:55:19.087Z,10.30
2019-02-03T05:57:47.500Z,8.45
2019-02-03T06:00:23.342Z,11.95
2019-02-03T06:02:51.771Z,8.85
2019-02-03T06:05:20.184Z,8.95
2019-02-03T06:07:48.619Z,9.00
2019-02-03T06:10:18.363Z,7.42
2019-02-03T06:12:46.879Z,11.18
2019-02-03T06:15:16.299Z,9.55
2019-02-03T06:17:44.751Z,8.68
2019-02-03T06:20:15.952Z,6.47
2019-02-03T06:22:45.352Z,10.30
2019-02-03T06:25:14.900Z,8.35
2019-02-03T06:27:43.343Z,10.55
2019-02-03T06:30:23.638Z,10.32
2019-02-03T06:32:52.087Z,5.50
2019-02-03T06:35:20.495Z,9.13
2019-02-03T06:37:48.916Z,11.30
2019-02-03T06:40:17.556Z,5.90
2019-02-03T06:42:45.987Z,11.20
2019-02-03T06:45:32.552Z,10.90
2019-02-03T06:48:00.996Z,10.85
2019-02-03T06:50:29.464Z,9.55
2019-02-03T06:52:57.877Z,8.68
2019-02-03T06:55:26.309Z,7.62
2019-02-03T06:57:54.759Z,9.78
2019-02-03T07:00:23.193Z,9.63
2019-02-03T07:02:51.810Z,9.15
2019-02-03T07:05:20.495Z,8.00
2019-02-03T07:07:48.935Z,9.33
2019-02-03T07:10:17.358Z,12.90
2019-02-03T07:12:45.798Z,11.40
2019-02-03T07:15:14.280Z,8.05
2019-02-03T07:17:46.119Z,8.88
2019-02-03T07:20:18.894Z,8.30
2019-02-03T07:22:47.368Z,10.10
2019-02-03T07:25:15.811Z,8.20
2019-02-03T07:27:44.222Z,7.70
2019-02-03T07:30:18.634Z,6.83
2019-02-03T07:32:47.041Z,9.55
2019-02-03T07:35:15.748Z,8.05
2019-02-03T07:37:44.909Z,8.85
2019-02-03T07:40:16.510Z,9.13
2019-02-03T07:42:44.998Z,10.75
2019-02-03T07:45:13.811Z,8.50
2019-02-03T07:47:42.703Z,8.08
2019-02-03T07:50:15.507Z,9.18
2019-02-03T07:52:43.939Z,7.70
2019-02-03T07:55:13.483Z,9.10
2019-02-03T07:57:42.197Z,7.70
2019-02-03T08:00:15.829Z,9.90
2019-02-03T08:02:50.715Z,11.75
2019-02-03T08:05:19.129Z,13.20
2019-02-03T08:07:47.566Z,9.30
2019-02-03T08:10:24.733Z,11.90
2019-02-03T08:12:48.690Z,13.00
2019-02-03T08:15:21.367Z,13.40
2019-02-03T08:17:49.879Z,15.50
2019-02-03T08:20:26.538Z,13.05
2019-02-03T08:22:55.047Z,14.93
2019-02-03T08:25:23.534Z,9.80
2019-02-03T08:27:51.982Z,14.13
2019-02-03T08:30:23.766Z,17.52
2019-02-03T08:32:52.451Z,16.40
2019-02-03T08:35:20.911Z,14.83
2019-02-03T08:37:49.556Z,14.80
2019-02-03T08:40:20.606Z,11.33
2019-02-03T08:42:49.047Z,11.80
2019-02-03T08:45:20.701Z,10.13
2019-02-03T08:47:49.186Z,12.73
2019-02-03T08:50:19.472Z,9.95
2019-02-03T08:52:50.947Z,14.13
2019-02-03T08:55:18.401Z,13.18
2019-02-03T08:57:47.278Z,12.23
2019-02-03T09:00:24.687Z,13.78
2019-02-03T09:02:53.132Z,14.68
2019-02-03T09:05:21.916Z,12.95
2019-02-03T09:07:50.358Z,10.55
2019-02-03T09:10:21.512Z,13.15
2019-02-03T09:12:49.955Z,13.03
2019-02-03T09:15:21.137Z,11.43
2019-02-03T09:17:49.682Z,14.70
2019-02-03T09:20:27.590Z,10.32
2019-02-03T09:22:56.055Z,11.28
2019-02-03T09:25:24.541Z,15.05
2019-02-03T09:27:53.296Z,12.50
2019-02-03T09:30:27.322Z,13.05
2019-02-03T09:32:56.020Z,12.98
2019-02-03T09:35:28.531Z,12.60
2019-02-03T09:37:57.249Z,17.42
2019-02-03T09:40:28.796Z,14.53
2019-02-03T09:42:57.486Z,12.20
2019-02-03T09:45:26.567Z,14.35
2019-02-03T09:47:54.982Z,16.12
2019-02-03T09:50:25.672Z,10.60
2019-02-03T09:52:56.000Z,15.55
2019-02-03T09:55:24.427Z,15.85
2019-02-03T09:57:53.129Z,22.32
2019-02-03T10:00:27.751Z,14.45
2019-02-03T10:02:57.719Z,16.50
2019-02-03T10:05:26.644Z,15.25
2019-02-03T10:07:55.221Z,9.08
2019-02-03T10:10:35.480Z,10.70
2019-02-03T10:13:04.866Z,15.80
2019-02-03T10:15:33.547Z,18.35
2019-02-03T10:18:02.539Z,20.97
2019-02-03T10:20:30.972Z,18.15
2019-02-03T10:22:59.387Z,20.97
2019-02-03T10:25:31.507Z,12.78
2019-02-03T10:27:59.928Z,19.73
2019-02-03T10:30:28.362Z,15.18
2019-02-03T10:32:57.423Z,15.63
2019-02-03T10:35:35.320Z,13.50
2019-02-03T10:38:05.569Z,22.58
2019-02-03T10:40:36.706Z,17.17
2019-02-03T10:43:07.001Z,20.75
2019-02-03T10:45:35.475Z,14.50
2019-02-03T10:48:04.690Z,19.27
2019-02-03T10:50:38.282Z,10.23
2019-02-03T10:53:09.475Z,18.35
2019-02-03T10:55:38.159Z,13.48
2019-02-03T10:58:07.362Z,17.42
2019-02-03T11:00:39.119Z,17.30
2019-02-03T11:03:07.575Z,22.85
2019-02-03T11:05:49.425Z,18.40
2019-02-03T11:08:17.916Z,20.23
2019-02-03T11:10:46.522Z,13.78
2019-02-03T11:13:15.097Z,8.13
2019-02-03T11:15:43.538Z,17.90
2019-02-03T11:18:12.055Z,18.32
2019-02-03T11:20:40.558Z,21.73
2019-02-03T11:23:08.962Z,20.15
2019-02-03T11:25:37.494Z,15.40
2019-02-03T11:28:06.604Z,19.82
2019-02-03T11:30:35.124Z,18.20
2019-02-03T11:33:07.407Z,17.98
2019-02-03T11:35:35.007Z,20.95
2019-02-03T11:38:12.466Z,18.25
2019-02-03T11:40:40.907Z,17.05
2019-02-03T11:43:09.361Z,15.40
2019-02-03T11:45:40.402Z,17.80
2019-02-03T11:48:17.616Z,21.60
2019-02-03T11:50:47.351Z,18.70
2019-02-03T11:53:25.161Z,17.02
2019-02-03T11:55:54.835Z,18.25
2019-02-03T11:58:23.557Z,14.53
2019-02-03T12:00:52.253Z,21.85
2019-02-03T12:03:20.653Z,20.65
2019-02-03T12:05:49.368Z,15.23
2019-02-03T12:08:20.871Z,16.48
2019-02-03T12:10:49.321Z,13.72
2019-02-03T12:13:18.315Z,16.35
2019-02-03T12:15:48.059Z,17.60
2019-02-03T12:18:16.714Z,16.50
2019-02-03T12:20:45.123Z,17.60
2019-02-03T12:23:17.590Z,16.60
2019-02-03T12:25:46.067Z,11.85
2019-02-03T12:28:14.547Z,13.98
2019-02-03T12:30:42.982Z,15.63
2019-02-03T12:33:11.408Z,15.28
2019-02-03T12:35:39.826Z,13.00
2019-02-03T12:38:13.184Z,16.23
2019-02-03T12:40:42.874Z,12.50
2019-02-03T12:43:11.306Z,17.23
2019-02-03T12:45:39.743Z,14.43
2019-02-03T12:48:09.790Z,15.10
2019-02-03T12:50:38.238Z,17.55
2019-02-03T12:53:10.533Z,14.40
2019-02-03T12:55:38.968Z,14.90
2019-02-03T12:58:07.419Z,16.62
2019-02-03T13:00:37.275Z,12.03
2019-02-03T13:03:07.823Z,16.48
2019-02-03T13:05:36.388Z,14.63
2019-02-03T13:08:09.187Z,10.32
2019-02-03T13:10:39.249Z,15.35
2019-02-03T13:13:08.821Z,11.75
2019-02-03T13:15:40.318Z,13.78
2019-02-03T13:18:09.257Z,16.20
2019-02-03T13:20:38.210Z,16.55
2019-02-03T13:23:11.235Z,10.90
2019-02-03T13:25:40.102Z,14.65
2019-02-03T13:28:08.592Z,15.32
2019-02-03T13:30:39.630Z,15.68
2019-02-03T13:33:08.660Z,14.07
2019-02-03T13:35:37.338Z,17.77
2019-02-03T13:38:06.219Z,10.90
2019-02-03T13:40:34.638Z,11.15
2019-02-03T13:43:04.407Z,14.98
2019-02-03T13:45:32.855Z,17.70
2019-02-03T13:48:01.602Z,15.00
2019-02-03T13:50:30.367Z,12.28
2019-02-03T13:52:58.812Z,15.88
2019-02-03T13:55:28.067Z,18.65
2019-02-03T13:57:56.830Z,11.48
2019-02-03T14:00:43.566Z,14.73
2019-02-03T14:03:12.103Z,12.60
2019-02-03T14:05:40.522Z,17.05
2019-02-03T14:08:09.157Z,15.45
2019-02-03T14:10:37.654Z,12.28
2019-02-03T14:13:07.955Z,16.10
2019-02-03T14:15:36.454Z,13.75
2019-02-03T14:18:05.902Z,10.93
2019-02-03T14:20:34.413Z,15.65
2019-02-03T14:23:02.843Z,10.95
2019-02-03T14:25:31.878Z,10.08
2019-02-03T14:28:00.314Z,13.03
2019-02-03T14:30:40.301Z,12.95
2019-02-03T14:33:05.179Z,10.80
2019-02-03T14:35:34.013Z,12.85
2019-02-03T14:38:04.226Z,6.70
2019-02-03T14:40:32.775Z,8.25
2019-02-03T14:43:02.383Z,10.32
2019-02-03T14:45:32.103Z,10.70
2019-02-03T14:48:00.622Z,10.85
2019-02-03T14:50:29.018Z,9.55
2019-02-03T14:53:00.616Z,10.50
2019-02-03T14:55:34.692Z,7.33
2019-02-03T14:58:03.095Z,10.28
2019-02-03T15:00:34.234Z,6.70
2019-02-03T15:03:05.084Z,9.45
2019-02-03T15:05:33.503Z,8.08
2019-02-03T15:08:01.946Z,6.90
2019-02-03T15:10:30.577Z,6.65
2019-02-03T15:12:59.800Z,8.38
2019-02-03T15:15:29.851Z,7.60
2019-02-03T15:17:58.777Z,3.72
2019-02-03T15:20:27.845Z,7.65
2019-02-03T15:22:56.388Z,9.75
2019-02-03T15:25:29.183Z,7.20
2019-02-03T15:27:57.747Z,6.60
2019-02-03T15:30:32.074Z,9.15
2019-02-03T15:33:00.567Z,11.18
2019-02-03T15:35:29.149Z,7.47
2019-02-03T15:37:57.992Z,10.30
2019-02-03T15:40:33.159Z,8.73
2019-02-03T15:43:02.087Z,6.65
2019-02-03T15:45:30.544Z,8.18
2019-02-03T15:47:58.995Z,7.55
2019-02-03T15:50:28.839Z,9.35
2019-02-03T15:52:58.112Z,8.30
2019-02-03T15:55:33.062Z,6.45
2019-02-03T15:58:02.042Z,7.58
2019-02-03T16:00:33.830Z,9.73
2019-02-03T16:03:02.236Z,8.83
2019-02-03T16:05:30.934Z,8.35
2019-02-03T16:07:59.370Z,8.68
2019-02-03T16:10:28.555Z,9.40
2019-02-03T16:12:57.005Z,8.10
2019-02-03T16:15:25.790Z,9.80
2019-02-03T16:17:54.476Z,7.45
2019-02-03T16:20:28.859Z,8.80
2019-02-03T16:22:58.833Z,5.85
2019-02-03T16:25:27.294Z,7.58
2019-02-03T16:27:55.699Z,7.95
2019-02-03T16:30:35.340Z,7.65
2019-02-03T16:33:04.695Z,7.30
2019-02-03T16:35:33.155Z,11.88
2019-02-03T16:38:01.945Z,11.25
2019-02-03T16:40:32.566Z,8.55
2019-02-03T16:43:01.271Z,9.65
2019-02-03T16:45:30.099Z,7.87
2019-02-03T16:47:58.515Z,11.40
2019-02-03T16:50:32.536Z,10.35
2019-02-03T16:53:02.659Z,10.40
2019-02-03T16:55:31.479Z,10.45
2019-02-03T16:57:59.987Z,9.35
2019-02-03T17:00:30.856Z,11.20
2019-02-03T17:02:59.343Z,10.58
2019-02-03T17:05:30.589Z,10.23
2019-02-03T17:08:00.926Z,10.48
2019-02-03T17:10:29.618Z,10.28
2019-02-03T17:12:58.068Z,8.83
2019-02-03T17:15:34.900Z,10.90
2019-02-03T17:18:04.707Z,9.98
2019-02-03T17:20:33.147Z,10.90
2019-02-03T17:23:01.599Z,11.45
2019-02-03T17:25:35.911Z,12.28
2019-02-03T17:28:04.991Z,11.70
2019-02-03T17:30:33.987Z,9.98
2019-02-03T17:33:02.483Z,10.45
2019-02-03T17:35:31.644Z,10.45
2019-02-03T17:38:00.092Z,12.90
2019-02-03T17:40:28.603Z,11.68
2019-02-03T17:43:00.434Z,11.63
2019-02-03T17:45:29.425Z,9.13
2019-02-03T17:47:57.842Z,10.13
2019-02-03T17:50:30.499Z,11.28
2019-02-03T17:52:58.990Z,11.83
2019-02-03T17:55:27.563Z,10.65
2019-02-03T17:57:56.600Z,7.37
2019-02-03T18:00:47.726Z,6.25
2019-02-03T18:03:16.126Z,8.25
2019-02-03T18:05:44.623Z,3.75
2019-02-03T18:08:13.501Z,5.70
2019-02-03T18:10:41.983Z,7.95
2019-02-03T18:13:13.345Z,9.60
2019-02-03T18:15:41.778Z,12.50
2019-02-03T18:18:10.582Z,9.60
2019-02-03T18:20:39.268Z,9.45
2019-02-03T18:23:08.176Z,9.85
2019-02-03T18:25:36.720Z,8.95
2019-02-03T18:28:09.841Z,8.95
2019-02-03T18:30:39.287Z,8.35
2019-02-03T18:33:08.776Z,8.85
2019-02-03T18:35:37.283Z,9.65
2019-02-03T18:38:08.698Z,9.75
2019-02-03T18:40:37.170Z,10.88
2019-02-03T18:43:05.934Z,9.35
2019-02-03T18:45:34.371Z,11.08
2019-02-03T18:48:02.860Z,10.58
2019-02-03T18:50:31.938Z,9.60
2019-02-03T18:53:00.362Z,10.18
2019-02-03T18:55:40.628Z,8.83
2019-02-03T18:58:09.031Z,7.67
2019-02-03T19:00:38.799Z,7.92
2019-02-03T19:03:09.695Z,5.75
2019-02-03T19:05:40.435Z,6.65
2019-02-03T19:08:09.082Z,6.00
2019-02-03T19:10:37.526Z,6.05
2019-02-03T19:13:06.867Z,5.90
2019-02-03T19:15:35.453Z,5.85
2019-02-03T19:18:04.631Z,6.60
2019-02-03T19:20:38.984Z,3.65
2019-02-03T19:23:11.030Z,5.22
2019-02-03T19:25:39.946Z,4.33
2019-02-03T19:28:08.522Z,5.95
2019-02-03T19:30:37.293Z,4.58
2019-02-03T19:33:06.576Z,6.80
2019-02-03T19:35:35.626Z,4.28
2019-02-03T19:38:06.904Z,4.60
2019-02-03T19:40:35.499Z,4.55
2019-02-03T19:43:04.955Z,5.65
2019-02-03T19:45:34.015Z,4.92
2019-02-03T19:48:02.992Z,3.80
2019-02-03T19:50:39.919Z,4.95
2019-02-03T19:53:09.913Z,5.08
2019-02-03T19:55:38.665Z,3.40
2019-02-03T19:58:07.627Z,4.28
2019-02-03T20:00:38.502Z,5.55
2019-02-03T20:03:07.862Z,5.33
2019-02-03T20:05:36.304Z,4.55
2019-02-03T20:08:05.786Z,4.35
2019-02-03T20:10:34.940Z,4.17
2019-02-03T20:13:03.695Z,4.65
2019-02-03T20:15:32.135Z,3.87
2019-02-03T20:18:00.543Z,5.05
2019-02-03T20:20:35.480Z,4.35
2019-02-03T20:23:06.441Z,4.42
2019-02-03T20:25:34.377Z,4.35
2019-02-03T20:28:02.815Z,5.05
2019-02-03T20:30:38.868Z,5.90
2019-02-03T20:33:06.376Z,4.95
2019-02-03T20:35:34.824Z,4.45
2019-02-03T20:38:04.071Z,4.67
2019-02-03T20:40:37.923Z,4.33
2019-02-03T20:43:06.730Z,5.08
2019-02-03T20:45:36.172Z,5.33
2019-02-03T20:48:05.480Z,3.60
2019-02-03T20:50:33.914Z,4.30
2019-02-03T20:53:02.355Z,4.67
2019-02-03T20:55:30.768Z,4.45
2019-02-03T20:57:59.201Z,3.45
2019-02-03T21:00:33.710Z,4.87
2019-02-03T21:03:02.115Z,5.08
2019-02-03T21:05:30.922Z,3.95
2019-02-03T21:07:59.399Z,3.75
2019-02-03T21:10:28.768Z,2.98
2019-02-03T21:12:58.334Z,5.00
2019-02-03T21:15:33.805Z,3.40
2019-02-03T21:17:58.458Z,4.87
2019-02-03T21:20:32.124Z,4.10
2019-02-03T21:23:01.080Z,4.22
2019-02-03T21:25:30.022Z,4.58
2019-02-03T21:27:58.620Z,4.67
2019-02-03T21:30:35.748Z,5.30
2019-02-03T21:33:04.966Z,3.42
2019-02-03T21:35:33.466Z,4.42
2019-02-03T21:38:02.163Z,5.97
2019-02-03T21:40:31.901Z,4.70
2019-02-03T21:43:00.407Z,5.75
2019-02-03T21:45:28.903Z,4.60
2019-02-03T21:47:57.324Z,5.35
2019-02-03T21:50:28.099Z,5.53
2019-02-03T21:52:56.891Z,4.70
2019-02-03T21:55:25.752Z,5.45
2019-02-03T21:57:54.459Z,3.80
2019-02-03T22:00:28.346Z,5.92
2019-02-03T22:02:57.141Z,4.47
2019-02-03T22:05:25.828Z,5.08
2019-02-03T22:07:54.339Z,5.40
2019-02-03T22:10:25.379Z,5.20
2019-02-03T22:12:53.883Z,5.33
2019-02-03T22:15:22.293Z,4.67
2019-02-03T22:17:50.787Z,5.28
2019-02-03T22:20:21.255Z,5.40
2019-02-03T22:22:49.798Z,5.30
2019-02-03T22:25:18.207Z,5.92
2019-02-03T22:27:46.680Z,6.62
2019-02-03T22:30:23.464Z,7.70
2019-02-03T22:32:51.918Z,5.67
2019-02-03T22:35:20.322Z,5.40
2019-02-03T22:37:48.727Z,6.92
2019-02-03T22:40:19.643Z,6.35
2019-02-03T22:42:48.333Z,5.35
2019-02-03T22:45:26.433Z,4.75
2019-02-03T22:47:54.854Z,3.40
2019-02-03T22:50:25.822Z,5.53
2019-02-03T22:52:54.323Z,5.78
2019-02-03T22:55:22.883Z,5.80
2019-02-03T22:57:51.713Z,5.15
2019-02-03T23:00:43.819Z,5.10
2019-02-03T23:03:12.679Z,5.87
2019-02-03T23:05:41.278Z,5.80
2019-02-03T23:08:09.714Z,6.60
2019-02-03T23:10:38.154Z,5.97
2019-02-03T23:13:06.559Z,5.70
2019-02-03T23:15:35.002Z,5.45
2019-02-03T23:18:03.686Z,4.92
2019-02-03T23:20:32.403Z,4.62
2019-02-03T23:23:00.834Z,5.33
2019-02-03T23:25:29.271Z,4.30
2019-02-03T23:27:57.835Z,5.55
2019-02-03T23:30:26.239Z,4.72
2019-02-03T23:32:54.678Z,4.70
2019-02-03T23:35:23.074Z,4.37
2019-02-03T23:37:51.544Z,4.62
2019-02-03T23:40:20.295Z,4.37
2019-02-03T23:42:48.707Z,4.17
2019-02-03T23:45:17.688Z,4.62
2019-02-03T23:47:46.091Z,4.67
2019-02-03T23:50:25.138Z,4.90
2019-02-03T23:52:53.546Z,4.90
2019-02-03T23:55:21.967Z,5.37
2019-02-03T23:57:50.399Z,4.50
